Thunder radar more information blitzortung!


Radar de pluja more information rain snow radar


Visita la nostra xarxa de llocs de meteo:

Template documentation
and downloads

And another site



No particular awareness of the weather is required.    There are no Weather-warnings

Pagina Historial Weather Underground text

Diari Resum Marc 21, 2016 Unitats:  Mètric    Imperial   Tant
« Previous Dia
SegĂźent Dia »
Diari Setmana Mensual Anual Personalitzada
  Maxima: Minima: Media:
Temperatura: 16.6 °C 9.4 °C 13.1 °C
Punt de rosada: 10.9 °C 6.1 °C 8.1 °C
Humitat: 82 % 64 % 72 %
Wind Speed: 14.8 km/h 0.0 km/h 4.3 km/h
RĂ fegues de vent: 14.8 km/h - -
Vent:- - SE
Pression baro: 1015.8 hPa 1010.7 hPa -
Precipitacions: 0.0 mm    
Historical Graphs
 
 
Dades de taula per Marc 21, 2016
Temps Temperatura Punt de rosada Pression baro Vent Wind Speed RĂ fegues de vent Humitat Rainfall Rate (Hourly)
04:35 13.9 °C 10.9 °C 1015.8 hPa SSE 1.6 km/h 1.6 km/h 82 % 0.0 mm
04:45 13.7 °C 10.3 °C 1015.8 hPa SE 3.2 km/h 8.0 km/h 80 % 0.0 mm
04:55 13.5 °C 10.1 °C 1014.8 hPa ESE 3.2 km/h 6.4 km/h 80 % 0.0 mm
05:05 14.1 °C 10.3 °C 1014.8 hPa East 1.6 km/h 3.2 km/h 78 % 0.0 mm
05:15 14.2 °C 10.0 °C 1014.8 hPa South 1.6 km/h 4.8 km/h 76 % 0.0 mm
05:25 14.3 °C 9.9 °C 1014.8 hPa SSE 1.6 km/h 6.4 km/h 75 % 0.0 mm
05:35 14.3 °C 9.7 °C 1014.8 hPa ESE 3.2 km/h 6.4 km/h 74 % 0.0 mm
05:45 14.7 °C 9.9 °C 1014.8 hPa ESE 3.2 km/h 6.4 km/h 73 % 0.0 mm
05:55 14.8 °C 9.8 °C 1014.8 hPa Calm   6.4 km/h 72 % 0.0 mm
06:05 14.8 °C 9.8 °C 1014.8 hPa ESE 3.2 km/h 6.4 km/h 72 % 0.0 mm
06:15 14.9 °C 9.3 °C 1014.8 hPa ESE 4.8 km/h 9.7 km/h 69 % 0.0 mm
06:25 14.9 °C 9.3 °C 1014.8 hPa East 1.6 km/h 6.4 km/h 69 % 0.0 mm
06:35 15.1 °C 9.7 °C 1014.8 hPa Calm   4.8 km/h 70 % 0.0 mm
06:45 15.5 °C 9.8 °C 1013.8 hPa NE 3.2 km/h 4.8 km/h 69 % 0.0 mm
06:55 15.5 °C 9.6 °C 1013.8 hPa ENE 3.2 km/h 4.8 km/h 68 % 0.0 mm
07:05 15.9 °C 10.0 °C 1013.8 hPa East 3.2 km/h 6.4 km/h 68 % 0.0 mm
07:15 16.2 °C 9.8 °C 1012.8 hPa ESE 3.2 km/h 8.0 km/h 66 % 0.0 mm
07:45 15.7 °C 8.9 °C 1013.8 hPa ESE 1.6 km/h 4.8 km/h 64 % 0.0 mm
08:15 15.0 °C 9.1 °C 1013.8 hPa ESE 4.8 km/h 8.0 km/h 68 % 0.0 mm
08:25 15.0 °C 9.3 °C 1013.8 hPa SE 3.2 km/h 9.7 km/h 69 % 0.0 mm
08:35 15.0 °C 9.6 °C 1013.8 hPa SSE 3.2 km/h 8.0 km/h 70 % 0.0 mm
08:45 14.8 °C 9.6 °C 1013.8 hPa South 3.2 km/h 4.8 km/h 71 % 0.0 mm
08:55 14.5 °C 9.3 °C 1012.8 hPa SW 1.6 km/h 6.4 km/h 71 % 0.0 mm
15:03 14.4 °C 9.4 °C 1012.8 hPa SSW 6.4 km/h 6.4 km/h 72 % 0.0 mm
15:08 14.3 °C 9.1 °C 1012.8 hPa SSW 9.3 km/h 9.3 km/h 71 % 0.0 mm
15:13 14.6 °C 9.4 °C 1012.8 hPa SW 9.3 km/h 9.3 km/h 71 % 0.0 mm
15:18 15.0 °C 10.0 °C 1012.8 hPa WSW 5.6 km/h 5.6 km/h 72 % 0.0 mm
15:23 15.5 °C 10.3 °C 1012.8 hPa WSW 9.0 km/h 9.0 km/h 71 % 0.0 mm
15:28 15.5 °C 9.8 °C 1012.8 hPa SW 9.3 km/h 9.3 km/h 69 % 0.0 mm
15:33 15.7 °C 10.0 °C 1012.8 hPa SW 7.4 km/h 7.4 km/h 69 % 0.0 mm
15:38 16.5 °C 10.8 °C 1011.7 hPa SW 5.0 km/h 5.0 km/h 69 % 0.0 mm
15:43 16.6 °C 10.4 °C 1011.7 hPa NNW 9.0 km/h 9.0 km/h 67 % 0.0 mm
15:48 15.9 °C 9.6 °C 1011.7 hPa ESE 7.4 km/h 7.4 km/h 66 % 0.0 mm
15:53 15.3 °C 9.2 °C 1011.7 hPa ESE 9.3 km/h 9.5 km/h 67 % 0.0 mm
15:58 15.0 °C 8.9 °C 1011.7 hPa NE 11.1 km/h 11.1 km/h 67 % 0.0 mm
16:03 14.8 °C 8.7 °C 1011.7 hPa East 11.1 km/h 11.1 km/h 67 % 0.0 mm
16:08 14.6 °C 8.6 °C 1011.7 hPa ESE 14.8 km/h 14.8 km/h 67 % 0.0 mm
16:13 14.5 °C 8.4 °C 1011.7 hPa South 11.1 km/h 11.1 km/h 67 % 0.0 mm
16:18 14.6 °C 8.8 °C 1011.7 hPa SSE 7.4 km/h 7.4 km/h 68 % 0.0 mm
16:23 14.5 °C 8.7 °C 1011.7 hPa East 7.4 km/h 7.4 km/h 68 % 0.0 mm
16:28 14.4 °C 8.6 °C 1011.7 hPa ESE 9.0 km/h 9.0 km/h 68 % 0.0 mm
16:33 14.3 °C 8.4 °C 1011.7 hPa ENE 7.4 km/h 7.4 km/h 68 % 0.0 mm
16:38 14.2 °C 8.4 °C 1010.7 hPa ESE 9.3 km/h 9.3 km/h 68 % 0.0 mm
16:43 14.4 °C 8.6 °C 1010.7 hPa ENE 5.6 km/h 5.6 km/h 68 % 0.0 mm
16:48 14.3 °C 8.4 °C 1010.7 hPa NE 11.1 km/h 11.1 km/h 68 % 0.0 mm
16:53 14.2 °C 8.4 °C 1011.7 hPa ENE 13.0 km/h 13.0 km/h 68 % 0.0 mm
16:58 14.0 °C 8.2 °C 1011.7 hPa ESE 11.1 km/h 11.1 km/h 68 % 0.0 mm
17:03 13.9 °C 8.1 °C 1011.7 hPa East 11.1 km/h 11.1 km/h 68 % 0.0 mm
17:08 13.9 °C 8.1 °C 1012.8 hPa East 13.0 km/h 13.0 km/h 68 % 0.0 mm
17:13 13.8 °C 8.0 °C 1012.8 hPa SE 7.4 km/h 7.4 km/h 68 % 0.0 mm
17:18 13.9 °C 8.1 °C 1012.8 hPa SE 10.0 km/h 10.0 km/h 68 % 0.0 mm
17:23 13.9 °C 8.1 °C 1011.7 hPa ESE 7.9 km/h 7.9 km/h 68 % 0.0 mm
17:28 13.8 °C 8.0 °C 1011.7 hPa ESE 13.0 km/h 13.0 km/h 68 % 0.0 mm
17:33 13.7 °C 7.9 °C 1011.7 hPa ENE 9.3 km/h 9.3 km/h 68 % 0.0 mm
17:38 13.7 °C 7.9 °C 1011.7 hPa East 11.1 km/h 11.1 km/h 68 % 0.0 mm
17:43 13.7 °C 7.9 °C 1011.7 hPa East 5.6 km/h 5.6 km/h 68 % 0.0 mm
17:48 13.7 °C 7.9 °C 1011.7 hPa East 7.4 km/h 7.4 km/h 68 % 0.0 mm
17:53 13.6 °C 7.8 °C 1011.7 hPa ESE 7.4 km/h 7.4 km/h 68 % 0.0 mm
17:58 13.5 °C 7.7 °C 1011.7 hPa ESE 5.6 km/h 5.6 km/h 68 % 0.0 mm
18:03 13.4 °C 7.6 °C 1011.7 hPa SE 5.6 km/h 5.6 km/h 68 % 0.0 mm
18:08 13.4 °C 7.6 °C 1011.7 hPa ESE 5.6 km/h 5.6 km/h 68 % 0.0 mm
18:13 13.3 °C 7.5 °C 1011.7 hPa SSE 3.7 km/h 3.7 km/h 68 % 0.0 mm
18:18 13.2 °C 7.4 °C 1011.7 hPa WSW 3.7 km/h   68 % 0.0 mm
18:23 13.2 °C 7.4 °C 1011.7 hPa Calm     68 % 0.0 mm
18:28 13.1 °C 7.3 °C 1011.7 hPa Calm     68 % 0.0 mm
18:33 13.0 °C 7.2 °C 1011.7 hPa NNE 3.7 km/h 3.7 km/h 68 % 0.0 mm
18:38 13.0 °C 7.2 °C 1011.7 hPa Calm     68 % 0.0 mm
18:43 13.0 °C 7.2 °C 1011.7 hPa Calm     68 % 0.0 mm
18:48 13.0 °C 7.2 °C 1011.7 hPa NE 1.9 km/h 1.9 km/h 68 % 0.0 mm
18:53 12.9 °C 7.3 °C 1010.7 hPa NE 1.9 km/h 1.9 km/h 69 % 0.0 mm
18:58 12.9 °C 7.1 °C 1010.7 hPa NE 3.9 km/h 3.9 km/h 68 % 0.0 mm
19:03 12.9 °C 7.1 °C 1010.7 hPa NE 1.4 km/h   68 % 0.0 mm
19:08 12.9 °C 7.1 °C 1011.7 hPa NE 1.9 km/h   68 % 0.0 mm
19:13 12.8 °C 7.1 °C 1011.7 hPa Calm     68 % 0.0 mm
19:18 12.8 °C 7.1 °C 1011.7 hPa Calm     68 % 0.0 mm
19:23 12.8 °C 7.3 °C 1011.7 hPa Calm     69 % 0.0 mm
19:28 12.8 °C 7.3 °C 1011.7 hPa NE 1.9 km/h   69 % 0.0 mm
19:33 12.7 °C 7.2 °C 1011.7 hPa Calm     69 % 0.0 mm
19:38 12.6 °C 7.1 °C 1011.7 hPa Calm     69 % 0.0 mm
19:43 12.6 °C 7.3 °C 1011.7 hPa Calm     70 % 0.0 mm
19:48 12.6 °C 7.5 °C 1011.7 hPa Calm     71 % 0.0 mm
19:53 12.6 °C 7.7 °C 1010.7 hPa Calm     72 % 0.0 mm
19:58 12.6 °C 7.9 °C 1010.7 hPa Calm     73 % 0.0 mm
20:03 12.6 °C 7.9 °C 1010.7 hPa Calm     73 % 0.0 mm
20:08 12.5 °C 8.0 °C 1011.7 hPa Calm     74 % 0.0 mm
20:13 12.5 °C 7.8 °C 1011.7 hPa Calm     73 % 0.0 mm
20:18 12.4 °C 7.9 °C 1011.7 hPa Calm     74 % 0.0 mm
20:23 12.3 °C 7.8 °C 1011.7 hPa Calm     74 % 0.0 mm
20:28 12.3 °C 7.8 °C 1011.7 hPa WSW 1.9 km/h   74 % 0.0 mm
20:33 12.3 °C 8.0 °C 1011.7 hPa Calm     75 % 0.0 mm
20:38 12.2 °C 7.9 °C 1011.7 hPa Calm     75 % 0.0 mm
20:48 12.0 °C 7.7 °C 1011.7 hPa Calm     75 % 0.0 mm
20:53 11.9 °C 7.8 °C 1011.7 hPa NNE 3.7 km/h 3.7 km/h 76 % 0.0 mm
20:58 11.8 °C 7.9 °C 1011.7 hPa NNE 3.7 km/h 3.7 km/h 77 % 0.0 mm
21:03 11.7 °C 7.8 °C 1011.7 hPa NNW 3.9 km/h 3.9 km/h 77 % 0.0 mm
21:08 11.5 °C 7.6 °C 1011.7 hPa NNE 1.9 km/h 1.9 km/h 77 % 0.0 mm
21:13 11.4 °C 7.5 °C 1011.7 hPa NNW 7.4 km/h 7.4 km/h 77 % 0.0 mm
21:18 11.3 °C 7.4 °C 1011.7 hPa NNE 5.3 km/h 5.3 km/h 77 % 0.0 mm
21:23 11.2 °C 7.3 °C 1011.7 hPa NE 5.6 km/h 5.6 km/h 77 % 0.0 mm
21:28 11.1 °C 7.2 °C 1011.7 hPa NE 5.6 km/h 5.6 km/h 77 % 0.0 mm
21:33 11.1 °C 7.4 °C 1011.7 hPa NNE 3.7 km/h 3.7 km/h 78 % 0.0 mm
21:43 10.9 °C 7.2 °C 1010.7 hPa NW 3.7 km/h 3.7 km/h 78 % 0.0 mm
21:48 10.8 °C 7.1 °C 1010.7 hPa NNE 2.6 km/h 2.6 km/h 78 % 0.0 mm
21:53 10.7 °C 7.0 °C 1011.7 hPa NNE 3.7 km/h 3.7 km/h 78 % 0.0 mm
21:58 10.6 °C 6.9 °C 1011.7 hPa NNE 1.9 km/h 1.9 km/h 78 % 0.0 mm
22:03 10.5 °C 7.0 °C 1011.7 hPa NNW 3.7 km/h 3.7 km/h 79 % 0.0 mm
22:08 10.5 °C 7.0 °C 1011.7 hPa NW 1.9 km/h 2.3 km/h 79 % 0.0 mm
22:13 10.4 °C 6.9 °C 1011.7 hPa WNW 5.6 km/h 5.6 km/h 79 % 0.0 mm
22:18 10.4 °C 6.9 °C 1011.7 hPa West 5.6 km/h 5.6 km/h 79 % 0.0 mm
22:23 10.4 °C 6.9 °C 1011.7 hPa NNW 5.8 km/h 5.8 km/h 79 % 0.0 mm
22:28 10.4 °C 6.9 °C 1011.7 hPa ENE 7.4 km/h 7.4 km/h 79 % 0.0 mm
22:33 10.3 °C 6.8 °C 1011.7 hPa North 3.7 km/h 3.7 km/h 79 % 0.0 mm
22:38 10.2 °C 6.9 °C 1011.7 hPa North 2.3 km/h 2.3 km/h 80 % 0.0 mm
22:43 10.1 °C 6.6 °C 1011.7 hPa North 2.3 km/h 2.3 km/h 79 % 0.0 mm
22:48 9.9 °C 6.4 °C 1011.7 hPa SW 2.6 km/h 2.6 km/h 79 % 0.0 mm
22:53 9.7 °C 6.2 °C 1011.7 hPa SW 1.9 km/h 2.3 km/h 79 % 0.0 mm
22:58 9.6 °C 6.1 °C 1011.7 hPa SW 1.9 km/h 2.3 km/h 79 % 0.0 mm
23:08 9.6 °C 6.5 °C 1011.7 hPa SW 3.9 km/h   81 % 0.0 mm
23:13 9.6 °C 6.5 °C 1011.7 hPa SW 3.9 km/h   81 % 0.0 mm
23:18 9.5 °C 6.2 °C 1011.7 hPa SW 3.9 km/h   80 % 0.0 mm
23:23 9.5 °C 6.6 °C 1011.7 hPa Calm     82 % 0.0 mm
23:28 9.5 °C 6.6 °C 1011.7 hPa Calm     82 % 0.0 mm
23:38 9.4 °C 6.5 °C 1011.7 hPa Calm     82 % 0.0 mm
23:43 9.4 °C 6.5 °C 1011.7 hPa Calm     82 % 0.0 mm
Meteo Sesrovires
Elogis d' Weather Underground - 3.25 mb

Guio original per  Jim McMurry - jmcmurry@mwt.net Adaptat per a la plantilla per  Wim van der Kuil - Leuven-Template.eu

Trobareu la nostra informacio del temps tambe a:

Weather Underground

AWEKAS